createdAt,value
2018-07-14T00:02:25.151Z,96807.72
2018-07-14T00:04:52.369Z,96809.48
2018-07-14T00:07:19.705Z,96808.30
2018-07-14T00:09:46.964Z,96807.62
2018-07-14T00:12:14.163Z,96806.09
2018-07-14T00:14:41.543Z,96804.84
2018-07-14T00:17:08.772Z,96810.73
2018-07-14T00:19:36.023Z,96803.69
2018-07-14T00:22:03.335Z,96805.58
2018-07-14T00:24:30.647Z,96807.87
2018-07-14T00:26:57.888Z,96805.13
2018-07-14T00:29:25.202Z,96802.41
2018-07-14T00:31:52.451Z,96806.55
2018-07-14T00:34:19.712Z,96806.43
2018-07-14T00:36:46.910Z,96806.56
2018-07-14T00:39:14.237Z,96802.13
2018-07-14T00:41:41.526Z,96801.20
2018-07-14T00:44:08.779Z,96799.28
2018-07-14T00:46:36.035Z,96802.14
2018-07-14T00:49:03.228Z,96801.35
2018-07-14T00:51:30.521Z,96793.70
2018-07-14T00:53:58.335Z,96794.75
2018-07-14T00:56:25.510Z,96790.45
2018-07-14T00:58:52.779Z,96786.50
2018-07-14T01:01:20.046Z,96791.06
2018-07-14T01:03:47.339Z,96795.02
2018-07-14T01:06:14.652Z,96796.77
2018-07-14T01:08:41.924Z,96797.70
2018-07-14T01:11:09.171Z,96798.69
2018-07-14T01:13:36.391Z,96799.45
2018-07-14T01:16:03.624Z,96799.92
2018-07-14T01:18:31.487Z,96794.17
2018-07-14T01:20:58.729Z,96801.41
2018-07-14T01:23:26.046Z,96799.92
2018-07-14T01:25:53.295Z,96796.60
2018-07-14T01:28:20.563Z,96797.28
2018-07-14T01:30:47.751Z,96795.37
2018-07-14T01:33:14.966Z,96794.17
2018-07-14T01:35:42.266Z,96799.37
2018-07-14T01:38:09.462Z,96798.39
2018-07-14T01:40:36.768Z,96797.16
2018-07-14T01:43:09.086Z,96796.66
2018-07-14T01:45:40.187Z,96790.91
2018-07-14T01:48:07.332Z,96795.73
2018-07-14T01:50:34.628Z,96794.13
2018-07-14T01:53:01.839Z,96798.68
2018-07-14T01:55:29.137Z,96795.02
2018-07-14T01:57:56.332Z,96790.81
2018-07-14T02:00:25.026Z,96788.16
2018-07-14T02:02:52.282Z,96794.08
2018-07-14T02:05:19.588Z,96791.03
2018-07-14T02:07:46.793Z,96793.75
2018-07-14T02:10:14.038Z,96791.12
2018-07-14T02:12:41.989Z,96792.56
2018-07-14T02:15:09.210Z,96792.85
2018-07-14T02:17:36.491Z,96788.08
2018-07-14T02:20:03.846Z,96796.64
2018-07-14T02:22:31.002Z,96791.06
2018-07-14T02:24:58.285Z,96791.87
2018-07-14T02:27:25.476Z,96794.64
2018-07-14T02:29:52.739Z,96794.12
2018-07-14T02:32:19.969Z,96798.19
2018-07-14T02:34:47.277Z,96796.86
2018-07-14T02:37:14.563Z,96798.64
2018-07-14T02:39:41.951Z,96805.79
2018-07-14T02:42:09.240Z,96798.64
2018-07-14T02:44:36.529Z,96800.24
2018-07-14T02:47:03.907Z,96800.73
2018-07-14T02:49:31.173Z,96804.62
2018-07-14T02:51:58.458Z,96804.67
2018-07-14T03:11:42.322Z,96784.48
2018-07-14T03:14:09.585Z,96792.04
2018-07-14T03:16:36.884Z,96793.41
2018-07-14T03:19:04.184Z,96800.17
2018-07-14T03:21:31.437Z,96795.92
2018-07-14T03:23:58.688Z,96798.98
2018-07-14T03:26:26.028Z,96793.44
2018-07-14T03:28:53.420Z,96797.27
2018-07-14T03:31:20.713Z,96798.68
2018-07-14T03:33:47.956Z,96788.67
2018-07-14T03:36:15.162Z,96790.09
2018-07-14T03:38:42.421Z,96793.36
2018-07-14T03:41:09.641Z,96788.48
2018-07-14T03:43:36.926Z,96792.86
2018-07-14T03:46:04.137Z,96788.00
2018-07-14T03:48:31.350Z,96787.79
2018-07-14T03:50:58.587Z,96784.17
2018-07-14T03:53:25.852Z,96790.69
2018-07-14T03:55:53.053Z,96789.63
2018-07-14T03:58:20.382Z,96788.42
2018-07-14T04:00:47.579Z,96781.22
2018-07-14T04:03:14.825Z,96780.28
2018-07-14T04:05:42.021Z,96783.52
2018-07-14T04:08:10.063Z,96792.12
2018-07-14T04:10:37.251Z,96784.61
2018-07-14T04:13:04.434Z,96784.20
2018-07-14T04:15:31.636Z,96789.06
2018-07-14T04:18:02.834Z,96786.43
2018-07-14T04:20:30.052Z,96790.69
2018-07-14T04:22:57.636Z,96794.30
2018-07-14T04:25:24.890Z,96801.11
2018-07-14T04:27:52.131Z,96788.73
2018-07-14T04:30:19.392Z,96792.73
2018-07-14T04:32:46.613Z,96801.70
2018-07-14T04:35:13.905Z,96794.86
2018-07-14T04:37:41.111Z,96796.73
2018-07-14T04:40:08.368Z,96795.28
2018-07-14T04:42:35.658Z,96798.13
2018-07-14T04:45:03.000Z,96797.49
2018-07-14T04:47:30.279Z,96787.06
2018-07-14T04:49:57.521Z,96786.89
2018-07-14T04:52:24.722Z,96787.01
2018-07-14T04:54:52.021Z,96785.43
2018-07-14T04:57:19.302Z,96790.68
2018-07-14T04:59:46.540Z,96790.34
2018-07-14T05:02:13.775Z,96788.55
2018-07-14T05:04:41.029Z,96786.62
2018-07-14T05:07:08.244Z,96780.14
2018-07-14T05:09:35.518Z,96785.84
2018-07-14T05:12:03.771Z,96781.20
2018-07-14T05:14:31.036Z,96781.77
2018-07-14T05:16:58.326Z,96776.97
2018-07-14T05:19:25.617Z,96782.72
2018-07-14T05:21:52.881Z,96780.70
2018-07-14T05:24:20.134Z,96782.63
2018-07-14T05:26:47.441Z,96776.59
2018-07-14T05:29:14.662Z,96777.77
2018-07-14T05:31:41.969Z,96766.00
2018-07-14T05:34:09.169Z,96779.68
2018-07-14T05:36:36.480Z,96776.11
2018-07-14T05:39:04.787Z,96772.56
2018-07-14T05:41:32.115Z,96780.82
2018-07-14T05:43:59.438Z,96782.28
2018-07-14T05:46:26.689Z,96776.08
2018-07-14T05:48:54.903Z,96782.28
2018-07-14T05:51:22.212Z,96787.23
2018-07-14T05:53:49.453Z,96786.63
2018-07-14T05:56:16.797Z,96793.69
2018-07-14T05:58:44.265Z,96789.88
2018-07-14T06:01:11.959Z,96796.65
2018-07-14T06:03:39.212Z,96797.52
2018-07-14T06:06:06.585Z,96805.87
2018-07-14T06:08:33.897Z,96807.95
2018-07-14T06:11:01.221Z,96806.63
2018-07-14T06:13:28.516Z,96806.33
2018-07-14T06:15:55.793Z,96804.97
2018-07-14T06:18:23.142Z,96805.66
2018-07-14T06:20:50.344Z,96803.88
2018-07-14T06:23:17.874Z,96801.39
2018-07-14T06:25:45.149Z,96804.84
2018-07-14T06:28:12.369Z,96803.17
2018-07-14T06:30:39.657Z,96805.84
2018-07-14T06:33:06.915Z,96803.52
2018-07-14T06:35:34.203Z,96812.47
2018-07-14T06:38:01.407Z,96809.85
2018-07-14T06:40:28.762Z,96814.84
2018-07-14T06:42:56.011Z,96818.64
2018-07-14T06:45:23.349Z,96812.13
2018-07-14T06:47:50.544Z,96813.42
2018-07-14T06:50:17.753Z,96811.88
2018-07-14T06:52:45.217Z,96813.98
2018-07-14T06:55:12.471Z,96809.02
2018-07-14T06:57:39.780Z,96811.88
2018-07-14T07:00:07.041Z,96814.33
2018-07-14T07:02:34.263Z,96818.48
2018-07-14T07:05:01.574Z,96819.47
2018-07-14T07:07:33.871Z,96819.85
2018-07-14T07:10:01.443Z,96816.40
2018-07-14T07:12:28.774Z,96816.70
2018-07-14T07:14:57.679Z,96816.38
2018-07-14T07:17:26.929Z,96809.50
2018-07-14T07:19:54.137Z,96808.00
2018-07-14T07:22:21.416Z,96769.92
2018-07-14T07:24:48.769Z,96802.70
2018-07-14T07:27:16.050Z,96803.95
2018-07-14T07:29:43.280Z,96800.91
2018-07-14T07:32:10.515Z,96802.05
2018-07-14T07:34:38.072Z,96799.24
2018-07-14T07:37:05.638Z,96797.89
2018-07-14T07:39:32.895Z,96796.41
2018-07-14T07:42:00.165Z,96797.58
2018-07-14T07:44:27.446Z,96794.41
2018-07-14T07:46:54.792Z,96796.84
2018-07-14T07:49:22.009Z,96791.19
2018-07-14T07:51:49.217Z,96794.20
2018-07-14T07:54:16.469Z,96791.72
2018-07-14T07:56:43.791Z,96793.83
2018-07-14T07:59:11.006Z,96788.14
2018-07-14T08:01:38.253Z,96796.95
2018-07-14T08:04:05.481Z,96792.22
2018-07-14T08:06:32.660Z,96795.14
2018-07-14T08:08:59.953Z,96785.52
2018-07-14T08:11:32.862Z,96790.34
2018-07-14T08:14:03.357Z,96788.20
2018-07-14T08:16:30.650Z,96788.73
2018-07-14T08:18:57.899Z,96788.80
2018-07-14T08:21:25.037Z,96793.13
2018-07-14T08:23:52.368Z,96793.80
2018-07-14T08:26:19.614Z,96788.80
2018-07-14T08:28:46.870Z,96785.25
2018-07-14T08:31:14.164Z,96788.93
2018-07-14T08:33:41.444Z,96780.90
2018-07-14T08:36:08.701Z,96785.02
2018-07-14T08:38:35.912Z,96783.66
2018-07-14T08:41:03.202Z,96785.56
2018-07-14T08:43:30.440Z,96788.86
2018-07-14T08:45:57.740Z,96789.86
2018-07-14T08:48:25.013Z,96788.94
2018-07-14T08:50:53.396Z,96795.18
2018-07-14T08:53:20.626Z,96795.98
2018-07-14T08:55:47.860Z,96795.56
2018-07-14T08:58:15.090Z,96800.44
2018-07-14T09:00:47.424Z,96792.76
2018-07-14T09:03:14.946Z,96797.63
2018-07-14T09:05:42.226Z,96794.92
2018-07-14T09:08:09.481Z,96792.39
2018-07-14T09:10:36.777Z,96797.48
2018-07-14T09:13:04.032Z,96792.79
2018-07-14T09:15:31.329Z,96797.19
2018-07-14T09:17:58.622Z,96787.13
2018-07-14T09:20:25.854Z,96792.59
2018-07-14T09:22:53.113Z,96789.78
2018-07-14T09:25:20.367Z,96788.66
2018-07-14T09:27:47.723Z,96794.41
2018-07-14T09:30:14.956Z,96789.44
2018-07-14T09:32:42.408Z,96783.86
2018-07-14T09:35:09.649Z,96789.53
2018-07-14T09:37:36.866Z,96784.13
2018-07-14T09:40:04.322Z,96786.14
2018-07-14T09:42:31.613Z,96785.95
2018-07-14T09:44:58.800Z,96782.89
2018-07-14T09:47:26.222Z,96785.18
2018-07-14T09:49:53.455Z,96779.38
2018-07-14T09:52:20.645Z,96777.70
2018-07-14T09:54:48.028Z,96768.92
2018-07-14T09:57:26.271Z,96770.91
2018-07-14T09:59:53.946Z,96768.75
2018-07-14T10:02:21.166Z,96767.90
2018-07-14T10:04:48.460Z,96762.24
2018-07-14T10:07:15.644Z,96759.00
2018-07-14T10:09:42.927Z,96762.95
2018-07-14T10:12:10.120Z,96759.79
2018-07-14T10:14:37.314Z,96759.77
2018-07-14T10:17:04.578Z,96759.19
2018-07-14T10:19:31.786Z,96759.71
2018-07-14T10:21:59.028Z,96761.37
2018-07-14T10:24:26.288Z,96757.59
2018-07-14T10:26:53.454Z,96758.80
2018-07-14T10:29:20.691Z,96757.86
2018-07-14T10:31:47.885Z,96740.97
2018-07-14T10:34:15.138Z,96753.13
2018-07-14T10:36:42.431Z,96745.34
2018-07-14T10:39:09.740Z,96739.37
2018-07-14T10:41:37.028Z,96736.00
2018-07-14T10:44:04.309Z,96739.06
2018-07-14T10:46:31.528Z,96737.14
2018-07-14T10:48:58.724Z,96741.17
2018-07-14T10:51:26.075Z,96744.20
2018-07-14T10:53:54.177Z,96745.63
2018-07-14T10:56:21.457Z,96742.20
2018-07-14T10:58:48.716Z,96742.29
2018-07-14T11:01:16.019Z,96734.05
2018-07-14T11:03:43.277Z,96726.06
2018-07-14T11:06:10.633Z,96724.72
2018-07-14T11:08:37.883Z,96728.96
2018-07-14T11:11:05.132Z,96727.98
2018-07-14T11:13:32.455Z,96728.91
2018-07-14T11:15:59.675Z,96719.24
2018-07-14T11:18:26.895Z,96722.30
2018-07-14T11:20:54.181Z,96721.42
2018-07-14T11:23:21.405Z,96720.11
2018-07-14T11:25:48.710Z,96719.44
2018-07-14T11:28:15.940Z,96717.38
2018-07-14T11:30:43.148Z,96715.03
2018-07-14T11:33:10.334Z,96720.16
2018-07-14T11:35:37.621Z,96717.00
2018-07-14T11:38:05.005Z,96715.97
2018-07-14T11:40:32.315Z,96718.57
2018-07-14T11:42:59.586Z,96715.44
2018-07-14T11:45:26.908Z,96721.23
2018-07-14T11:47:54.371Z,96709.26
2018-07-14T11:50:21.516Z,96712.03
2018-07-14T11:52:48.853Z,96713.16
2018-07-14T11:55:16.154Z,96710.89
2018-07-14T11:57:43.398Z,96710.73
2018-07-14T12:00:10.685Z,96703.57
2018-07-14T12:02:37.894Z,96698.19
2018-07-14T12:05:05.285Z,96690.44
2018-07-14T12:07:32.609Z,96691.92
2018-07-14T12:09:59.857Z,96685.19
2018-07-14T12:12:27.139Z,96680.20
2018-07-14T12:14:54.882Z,96684.23
2018-07-14T12:17:22.217Z,96686.08
2018-07-14T12:19:49.450Z,96684.41
2018-07-14T12:22:16.808Z,96686.50
2018-07-14T12:24:43.973Z,96683.19
2018-07-14T12:27:11.261Z,96681.72
2018-07-14T12:29:38.450Z,96671.55
2018-07-14T12:32:05.774Z,96676.02
2018-07-14T12:34:33.022Z,96674.18
2018-07-14T12:37:00.276Z,96676.67
2018-07-14T12:39:27.522Z,96676.00
2018-07-14T12:41:54.865Z,96669.63
2018-07-14T12:44:22.129Z,96669.32
2018-07-14T12:46:49.391Z,96670.27
2018-07-14T12:49:16.667Z,96665.89
2018-07-14T12:51:43.940Z,96654.70
2018-07-14T12:54:11.292Z,96664.23
2018-07-14T12:56:38.522Z,96654.67
2018-07-14T12:59:05.932Z,96653.36
2018-07-14T13:01:33.165Z,96653.81
2018-07-14T13:04:00.463Z,96657.14
2018-07-14T13:06:27.847Z,96655.17
2018-07-14T13:08:54.976Z,96648.45
2018-07-14T13:11:22.288Z,96650.19
2018-07-14T13:13:49.554Z,96640.84
2018-07-14T13:16:17.069Z,96647.56
2018-07-14T13:18:44.399Z,96645.97
2018-07-14T13:21:11.649Z,96640.59
2018-07-14T13:23:38.941Z,96645.02
2018-07-14T13:26:06.167Z,96641.73
2018-07-14T13:28:33.576Z,96641.64
2018-07-14T13:31:00.874Z,96637.69
2018-07-14T13:33:28.137Z,96633.34
2018-07-14T13:35:55.325Z,96629.60
2018-07-14T13:38:22.595Z,96627.78
2018-07-14T13:40:49.802Z,96624.37
2018-07-14T13:43:17.071Z,96630.56
2018-07-14T13:45:44.354Z,96627.78
2018-07-14T13:48:11.645Z,96622.84
2018-07-14T13:50:38.865Z,96625.37
2018-07-14T13:53:06.173Z,96619.34
2018-07-14T13:55:33.471Z,96611.98
2018-07-14T13:58:00.727Z,96616.94
2018-07-14T14:00:27.934Z,96618.66
2018-07-14T14:02:55.162Z,96613.23
2018-07-14T14:05:22.454Z,96612.09
2018-07-14T14:07:49.772Z,96612.09
2018-07-14T14:10:18.520Z,96607.66
2018-07-14T14:12:45.889Z,96605.72
2018-07-14T14:15:13.312Z,96605.33
2018-07-14T14:17:40.609Z,96602.34
2018-07-14T14:20:07.948Z,96602.52
2018-07-14T14:22:35.103Z,96602.02
2018-07-14T14:25:02.411Z,96599.00
2018-07-14T14:27:29.629Z,96583.23
2018-07-14T14:29:56.881Z,96596.13
2018-07-14T14:32:24.162Z,96592.58
2018-07-14T14:34:51.469Z,96590.97
2018-07-14T14:37:18.739Z,96593.23
2018-07-14T14:39:45.967Z,96590.40
2018-07-14T14:42:13.263Z,96586.42
2018-07-14T14:44:40.593Z,96587.89
2018-07-14T14:47:11.335Z,96593.33
2018-07-14T14:49:43.990Z,96592.03
2018-07-14T14:52:14.053Z,96592.13
2018-07-14T14:54:41.232Z,96590.61
2018-07-14T14:57:09.643Z,96582.16
2018-07-14T14:59:36.822Z,96585.41
2018-07-14T15:02:04.146Z,96593.30
2018-07-14T15:04:31.407Z,96584.44
2018-07-14T15:06:58.585Z,96585.80
2018-07-14T15:09:25.867Z,96579.50
2018-07-14T15:11:53.212Z,96576.14
2018-07-14T15:14:20.512Z,96577.27
2018-07-14T15:16:47.776Z,96571.58
2018-07-14T15:19:15.036Z,96555.78
2018-07-14T15:21:42.341Z,96568.92
2018-07-14T15:24:09.628Z,96567.89
2018-07-14T15:26:36.893Z,96561.09
2018-07-14T15:29:04.534Z,96565.39
2018-07-14T15:31:31.879Z,96566.73
2018-07-14T15:33:59.187Z,96559.15
2018-07-14T15:36:36.284Z,96558.87
2018-07-14T15:39:05.953Z,96555.20
2018-07-14T15:41:38.608Z,96557.19
2018-07-14T15:44:05.972Z,96552.23
2018-07-14T15:46:33.235Z,96552.61
2018-07-14T15:49:00.669Z,96556.14
2018-07-14T15:51:30.621Z,96554.87
2018-07-14T15:54:07.468Z,96556.31
2018-07-14T15:56:34.625Z,96552.08
2018-07-14T15:59:01.996Z,96553.04
2018-07-14T16:01:29.376Z,96558.12
2018-07-14T16:03:56.589Z,96558.54
2018-07-14T16:06:23.836Z,96557.05
2018-07-14T16:08:51.155Z,96552.02
2018-07-14T16:11:18.374Z,96561.57
2018-07-14T16:13:45.648Z,96557.39
2018-07-14T16:16:12.848Z,96560.73
2018-07-14T16:18:40.036Z,96554.94
2018-07-14T16:21:07.362Z,96556.79
2018-07-14T16:23:34.601Z,96550.73
2018-07-14T16:26:01.893Z,96550.16
2018-07-14T16:28:29.272Z,96550.70
2018-07-14T16:30:56.538Z,96546.16
2018-07-14T16:33:23.843Z,96544.12
2018-07-14T16:35:51.387Z,96538.85
2018-07-14T16:38:18.662Z,96540.05
2018-07-14T16:40:46.298Z,96540.47
2018-07-14T16:43:13.626Z,96536.20
2018-07-14T16:45:40.958Z,96534.98
2018-07-14T16:48:08.268Z,96538.35
2018-07-14T16:50:35.584Z,96535.33
2018-07-14T16:53:02.930Z,96539.94
2018-07-14T16:55:30.300Z,96535.39
2018-07-14T16:57:57.380Z,96533.94
2018-07-14T17:00:24.722Z,96530.80
2018-07-14T17:02:51.954Z,96528.87
2018-07-14T17:05:19.182Z,96533.52
2018-07-14T17:07:46.472Z,96536.50
2018-07-14T17:10:13.714Z,96530.50
2018-07-14T17:12:40.976Z,96533.73
2018-07-14T17:15:08.313Z,96525.68
2018-07-14T17:17:35.557Z,96535.02
2018-07-14T17:20:02.813Z,96526.80
2018-07-14T17:22:30.035Z,96533.44
2018-07-14T17:24:57.224Z,96525.77
2018-07-14T17:27:24.397Z,96524.87
2018-07-14T17:29:51.693Z,96520.69
2018-07-14T17:32:18.931Z,96521.30
2018-07-14T17:34:46.218Z,96520.13
2018-07-14T17:37:13.399Z,96522.42
2018-07-14T17:39:40.622Z,96520.80
2018-07-14T17:42:07.928Z,96516.13
2018-07-14T17:44:35.297Z,96514.88
2018-07-14T17:47:02.545Z,96512.05
2018-07-14T17:49:29.773Z,96519.41
2018-07-14T17:51:57.168Z,96518.33
2018-07-14T17:54:24.330Z,96518.73
2018-07-14T17:56:51.694Z,96514.30
2018-07-14T17:59:18.990Z,96515.66
2018-07-14T18:01:46.211Z,96513.51
2018-07-14T18:04:13.422Z,96507.45
2018-07-14T18:06:40.727Z,96510.17
2018-07-14T18:09:09.084Z,96507.09
2018-07-14T18:11:36.328Z,96520.41
2018-07-14T18:14:03.583Z,96510.64
2018-07-14T18:16:30.893Z,96510.45
2018-07-14T18:18:58.142Z,96514.36
2018-07-14T18:21:25.677Z,96505.78
2018-07-14T18:23:52.916Z,96514.36
2018-07-14T18:26:20.148Z,96509.20
2018-07-14T18:28:47.613Z,96513.12
2018-07-14T18:31:14.894Z,96508.59
2018-07-14T18:33:42.116Z,96511.07
2018-07-14T18:36:09.456Z,96509.12
2018-07-14T18:38:36.680Z,96509.55
2018-07-14T18:41:03.917Z,96518.52
2018-07-14T18:43:31.212Z,96515.05
2018-07-14T18:45:58.509Z,96517.81
2018-07-14T18:48:25.732Z,96520.80
2018-07-14T18:50:53.001Z,96515.09
2018-07-14T18:53:20.240Z,96516.66
2018-07-14T18:55:47.544Z,96513.45
2018-07-14T18:58:14.806Z,96515.68
2018-07-14T19:00:42.040Z,96524.55
2018-07-14T19:03:09.375Z,96523.56
2018-07-14T19:05:36.707Z,96523.53
2018-07-14T19:08:04.523Z,96522.48
2018-07-14T19:10:31.861Z,96524.73
2018-07-14T19:12:59.201Z,96521.83
2018-07-14T19:15:26.417Z,96528.88
2018-07-14T19:17:53.703Z,96530.57
2018-07-14T19:20:20.897Z,96538.73
2018-07-14T19:22:48.136Z,96541.16
2018-07-14T19:25:15.467Z,96537.00
2018-07-14T19:27:42.726Z,96542.39
2018-07-14T19:30:09.662Z,96543.54
2018-07-14T19:32:36.989Z,96547.20
2018-07-14T19:35:04.398Z,96547.45
2018-07-14T19:37:31.647Z,96546.36
2018-07-14T19:39:58.987Z,96557.68
2018-07-14T19:42:26.239Z,96559.59
2018-07-14T19:44:53.600Z,96558.19
2018-07-14T19:47:20.849Z,96564.95
2018-07-14T19:49:51.200Z,96560.56
2018-07-14T19:52:18.463Z,96564.37
2018-07-14T19:54:47.172Z,96567.45
2018-07-14T19:57:19.598Z,96525.52
2018-07-14T19:59:46.860Z,96570.23
2018-07-14T20:02:14.213Z,96572.61
2018-07-14T20:04:41.516Z,96572.45
2018-07-14T20:07:08.786Z,96572.01
2018-07-14T20:09:36.119Z,96568.30
2018-07-14T20:12:03.388Z,96576.73
2018-07-14T20:14:30.624Z,96578.25
2018-07-14T20:16:57.961Z,96580.49
2018-07-14T20:19:25.276Z,96579.02
2018-07-14T20:21:52.510Z,96572.11
2018-07-14T20:24:22.790Z,96574.17
2018-07-14T20:26:50.006Z,96575.67
2018-07-14T20:29:17.195Z,96578.37
2018-07-14T20:31:44.439Z,96578.75
2018-07-14T20:34:11.759Z,96579.42
2018-07-14T20:36:38.957Z,96577.69
2018-07-14T20:39:06.285Z,96584.48
2018-07-14T20:41:33.649Z,96585.76
2018-07-14T20:44:00.832Z,96586.84
2018-07-14T20:46:28.115Z,96581.14
2018-07-14T20:48:55.347Z,96584.99
2018-07-14T20:51:22.556Z,96582.27
2018-07-14T20:53:49.755Z,96586.65
2018-07-14T20:56:17.006Z,96584.70
2018-07-14T20:58:46.538Z,96589.06
2018-07-14T21:01:13.798Z,96591.42
2018-07-14T21:03:41.077Z,96589.62
2018-07-14T21:06:13.206Z,96589.05
2018-07-14T21:08:40.417Z,96589.02
2018-07-14T21:11:07.713Z,96583.55
2018-07-14T21:13:35.112Z,96588.52
2018-07-14T21:16:02.451Z,96587.39
2018-07-14T21:18:29.768Z,96590.70
2018-07-14T21:20:57.112Z,96586.86
2018-07-14T21:23:24.420Z,96589.05
2018-07-14T21:25:51.651Z,96588.72
2018-07-14T21:28:18.951Z,96592.45
2018-07-14T21:30:46.321Z,96582.19
2018-07-14T21:33:13.552Z,96585.73
2018-07-14T21:35:40.809Z,96580.15
2018-07-14T21:38:10.880Z,96585.34
2018-07-14T21:40:38.194Z,96586.03
2018-07-14T21:43:05.432Z,96586.55
2018-07-14T21:45:32.822Z,96587.23
2018-07-14T21:48:00.099Z,96586.94
2018-07-14T21:50:27.360Z,96585.77
2018-07-14T21:52:54.584Z,96597.09
2018-07-14T21:55:21.845Z,96598.72
2018-07-14T21:57:49.147Z,96599.27
2018-07-14T22:00:28.534Z,96597.45
2018-07-14T22:02:55.774Z,96595.45
2018-07-14T22:05:22.996Z,96594.15
2018-07-14T22:07:50.653Z,96592.52
2018-07-14T22:10:18.090Z,96596.34
2018-07-14T22:12:45.362Z,96596.98
2018-07-14T22:15:12.628Z,96601.94
2018-07-14T22:17:39.872Z,96599.97
2018-07-14T22:20:08.068Z,96598.78
2018-07-14T22:22:35.278Z,96598.30
2018-07-14T22:25:02.457Z,96599.80
2018-07-14T22:27:29.688Z,96605.08
2018-07-14T22:29:56.959Z,96605.41
2018-07-14T22:32:24.165Z,96605.73
2018-07-14T22:34:51.379Z,96606.23
2018-07-14T22:37:18.641Z,96612.03
2018-07-14T22:39:45.886Z,96612.84
2018-07-14T22:42:13.115Z,96613.50
2018-07-14T22:44:40.298Z,96607.54
2018-07-14T22:47:07.456Z,96612.02
2018-07-14T22:49:34.708Z,96611.98
2018-07-14T22:52:01.881Z,96614.84
2018-07-14T22:54:29.175Z,96621.88
2018-07-14T22:56:56.402Z,96622.21
2018-07-14T22:59:23.648Z,96619.10
2018-07-14T23:01:50.966Z,96619.56
2018-07-14T23:04:18.252Z,96615.89
2018-07-14T23:06:45.625Z,96615.04
2018-07-14T23:09:12.792Z,96616.16
2018-07-14T23:11:40.132Z,96618.23
2018-07-14T23:14:07.529Z,96622.69
2018-07-14T23:16:34.917Z,96619.74
2018-07-14T23:19:02.194Z,96617.58
2018-07-14T23:21:29.390Z,96594.16
2018-07-14T23:23:56.926Z,96575.27
2018-07-14T23:26:24.204Z,96618.23
2018-07-14T23:28:51.589Z,96615.55
2018-07-14T23:31:18.887Z,96615.70
2018-07-14T23:33:46.165Z,96614.48
2018-07-14T23:36:13.387Z,96610.70
2018-07-14T23:38:40.600Z,96613.64
2018-07-14T23:41:07.919Z,96605.63
2018-07-14T23:43:35.093Z,96608.23
2018-07-14T23:46:02.337Z,96609.74
2018-07-14T23:48:30.494Z,96607.58
2018-07-14T23:50:57.781Z,96608.27
2018-07-14T23:53:25.370Z,96598.93
2018-07-14T23:55:54.098Z,96601.53
2018-07-14T23:58:21.579Z,96602.63
